Townville, SC (29689)

1:04 PM EDT on June 03, 2015 (GMT -0400)
Reed Creek | | Change Station
CLOSE
Current Station
Personal Weather Station
Location: Hartwell, GA
Elevation: 745 ft
Nearby Weather Stations

Elev 745 ft 34.48 °N, 82.91 °W | Updated 12 minutes ago

Overcast
Overcast
79.0 °F
Feels Like 81 °F
N
2.2
Wind Variable Wind from NNE

Today
High -- | Low -- °F
--% Chance of Precip.
Yesterday
High -- | Low -- °F
Precip. -- in
6:19 AM 8:40 PM
Full, 99% visible
Pressure 30.02 in
Visibility 10.0 miles
Clouds Scattered Clouds 2800 ft
Mostly Cloudy 4500 ft
Overcast 5500 ft
Heat Index 81 °F
Dew Point 68 °F
Humidity 70%
Rainfall 0.00 in
Snow Depth Not available.
UV 4 out of 12
Pollen 4.90 out of 12
Air Quality Not available.
Flu Activity Local Activity
METAR KCEU 031654Z AUTO 10009KT 080V140 10SM SCT028 BKN045 OVC055 25/16 A3005 RMK AO2 LTG DSNT N SLP166 T02500161

More Conditions Fewer Conditions

Pressure 30.02 in
Visibility 10.0 miles
Clouds Scattered Clouds 2800 ft
Mostly Cloudy 4500 ft
Overcast 5500 ft
Heat Index 81 °F
Dew Point 68 °F
Humidity 70%
Rainfall 0.00 in
Snow Depth Not available.
UV 4 out of 12
Pollen 4.90 out of 12
Air Quality Not available.
Flu Activity Local Activity
METAR KCEU 031654Z AUTO 10009KT 080V140 10SM SCT028 BKN045 OVC055 25/16 A3005 RMK AO2 LTG DSNT N SLP166 T02500161

More Conditions Fewer Conditions

10-Day Weather Forecast

×

Almanac

Astronomy

Jun. 03, 2015 Rise Set
Actual Time
Civil Twilight
Nautical Twilight
Astronomical Twilight
Moon
Length of Visible Light
Length of Day
Tomorrow will be .
, % of the Moon is Illuminated

Today's Extremes

State Highs State Lows

Community

WunderPhotos

Upload Photos

1,826,256 photos uploaded!

WunderBlogs® & News

Nearby

Air Quality

  Air Quality AQ Index Pollutant
Not available.

Snow Depth

Station Depth Elevation

Earthquake Activity

City Distance Mag. Time & Date
Minimum magnitude displayed is 2.5.

Coastal Water Temperatures

Place Temperature

Stations

Nearby Weather Stations

Station Location Temp. Windchill Dew Point Humidity Wind Precip. Elev Updated Type